sensor_id;sensor_type;location;lat;lon;timestamp;P1;durP1;ratioP1;P2;durP2;ratioP2
17235;SDS011;8734;59.272;17.780;2024-01-10T00:01:40;2.23;;;1.30;;
17235;SDS011;8734;59.272;17.780;2024-01-10T00:04:09;2.30;;;1.10;;
17235;SDS011;8734;59.272;17.780;2024-01-10T00:06:37;3.70;;;1.43;;
17235;SDS011;8734;59.272;17.780;2024-01-10T00:09:05;2.50;;;1.27;;
17235;SDS011;8734;59.272;17.780;2024-01-10T00:11:33;2.17;;;1.30;;
17235;SDS011;8734;59.272;17.780;2024-01-10T00:14:03;1.80;;;1.33;;
17235;SDS011;8734;59.272;17.780;2024-01-10T00:16:32;4.20;;;1.40;;
17235;SDS011;8734;59.272;17.780;2024-01-10T00:19:00;1.57;;;1.10;;
17235;SDS011;8734;59.272;17.780;2024-01-10T00:21:28;3.07;;;1.53;;
17235;SDS011;8734;59.272;17.780;2024-01-10T00:23:57;2.93;;;1.40;;
17235;SDS011;8734;59.272;17.780;2024-01-10T00:26:25;2.43;;;1.50;;
17235;SDS011;8734;59.272;17.780;2024-01-10T00:28:53;2.17;;;1.20;;
17235;SDS011;8734;59.272;17.780;2024-01-10T00:31:31;2.63;;;1.30;;
17235;SDS011;8734;59.272;17.780;2024-01-10T00:34:02;1.67;;;1.03;;
17235;SDS011;8734;59.272;17.780;2024-01-10T00:36:32;2.13;;;1.00;;
17235;SDS011;8734;59.272;17.780;2024-01-10T00:39:00;1.20;;;1.03;;
17235;SDS011;8734;59.272;17.780;2024-01-10T00:41:28;2.17;;;1.20;;
17235;SDS011;8734;59.272;17.780;2024-01-10T00:43:56;2.03;;;1.07;;
17235;SDS011;8734;59.272;17.780;2024-01-10T00:46:25;1.50;;;1.20;;
17235;SDS011;8734;59.272;17.780;2024-01-10T00:48:54;1.10;;;1.00;;
17235;SDS011;8734;59.272;17.780;2024-01-10T00:51:22;2.23;;;0.90;;
17235;SDS011;8734;59.272;17.780;2024-01-10T00:53:51;1.63;;;1.20;;
17235;SDS011;8734;59.272;17.780;2024-01-10T00:56:19;2.27;;;1.20;;
17235;SDS011;8734;59.272;17.780;2024-01-10T00:58:47;1.90;;;1.27;;
17235;SDS011;8734;59.272;17.780;2024-01-10T01:01:16;4.27;;;1.07;;
17235;SDS011;8734;59.272;17.780;2024-01-10T01:03:44;1.30;;;0.83;;
17235;SDS011;8734;59.272;17.780;2024-01-10T01:06:14;2.70;;;1.60;;
17235;SDS011;8734;59.272;17.780;2024-01-10T01:08:42;2.70;;;1.50;;
17235;SDS011;8734;59.272;17.780;2024-01-10T01:11:11;1.13;;;0.90;;
17235;SDS011;8734;59.272;17.780;2024-01-10T01:13:41;1.50;;;1.07;;
17235;SDS011;8734;59.272;17.780;2024-01-10T01:16:09;2.27;;;1.50;;
17235;SDS011;8734;59.272;17.780;2024-01-10T01:18:38;2.67;;;1.00;;
17235;SDS011;8734;59.272;17.780;2024-01-10T01:21:06;2.47;;;1.10;;
17235;SDS011;8734;59.272;17.780;2024-01-10T01:23:35;1.77;;;1.00;;
17235;SDS011;8734;59.272;17.780;2024-01-10T01:26:08;3.00;;;1.00;;
17235;SDS011;8734;59.272;17.780;2024-01-10T01:28:36;0.87;;;0.80;;
17235;SDS011;8734;59.272;17.780;2024-01-10T01:31:05;2.43;;;1.10;;
17235;SDS011;8734;59.272;17.780;2024-01-10T01:33:34;2.17;;;1.10;;
17235;SDS011;8734;59.272;17.780;2024-01-10T01:36:02;3.13;;;1.50;;
17235;SDS011;8734;59.272;17.780;2024-01-10T01:38:31;2.03;;;1.00;;
17235;SDS011;8734;59.272;17.780;2024-01-10T01:41:00;1.33;;;0.90;;
17235;SDS011;8734;59.272;17.780;2024-01-10T01:43:29;3.60;;;1.03;;
17235;SDS011;8734;59.272;17.780;2024-01-10T01:45:57;1.70;;;1.00;;
17235;SDS011;8734;59.272;17.780;2024-01-10T01:48:26;1.60;;;1.20;;
17235;SDS011;8734;59.272;17.780;2024-01-10T01:50:55;1.77;;;1.10;;
17235;SDS011;8734;59.272;17.780;2024-01-10T01:53:27;1.33;;;0.97;;
17235;SDS011;8734;59.272;17.780;2024-01-10T01:55:56;2.17;;;1.20;;
17235;SDS011;8734;59.272;17.780;2024-01-10T01:58:28;4.63;;;1.23;;
17235;SDS011;8734;59.272;17.780;2024-01-10T02:00:57;1.20;;;0.80;;
17235;SDS011;8734;59.272;17.780;2024-01-10T02:03:26;3.17;;;1.00;;
17235;SDS011;8734;59.272;17.780;2024-01-10T02:05:54;2.30;;;1.27;;
17235;SDS011;8734;59.272;17.780;2024-01-10T02:08:22;2.67;;;1.13;;
17235;SDS011;8734;59.272;17.780;2024-01-10T02:10:51;1.10;;;0.90;;
17235;SDS011;8734;59.272;17.780;2024-01-10T02:13:19;0.80;;;0.63;;
17235;SDS011;8734;59.272;17.780;2024-01-10T02:15:48;2.90;;;1.00;;
17235;SDS011;8734;59.272;17.780;2024-01-10T02:18:17;2.70;;;1.13;;
17235;SDS011;8734;59.272;17.780;2024-01-10T02:20:45;1.90;;;1.10;;
17235;SDS011;8734;59.272;17.780;2024-01-10T02:23:14;3.57;;;1.33;;
17235;SDS011;8734;59.272;17.780;2024-01-10T02:25:43;1.30;;;0.90;;
17235;SDS011;8734;59.272;17.780;2024-01-10T02:28:12;1.83;;;1.00;;
17235;SDS011;8734;59.272;17.780;2024-01-10T02:30:40;1.10;;;0.90;;
17235;SDS011;8734;59.272;17.780;2024-01-10T02:33:08;1.03;;;0.83;;
17235;SDS011;8734;59.272;17.780;2024-01-10T02:35:36;1.07;;;0.83;;
17235;SDS011;8734;59.272;17.780;2024-01-10T02:38:05;2.80;;;0.77;;
17235;SDS011;8734;59.272;17.780;2024-01-10T02:40:34;4.07;;;1.17;;
17235;SDS011;8734;59.272;17.780;2024-01-10T02:43:03;1.67;;;0.90;;
17235;SDS011;8734;59.272;17.780;2024-01-10T02:45:33;0.97;;;0.80;;
17235;SDS011;8734;59.272;17.780;2024-01-10T02:48:02;1.93;;;1.00;;
17235;SDS011;8734;59.272;17.780;2024-01-10T02:50:31;0.73;;;0.60;;
17235;SDS011;8734;59.272;17.780;2024-01-10T02:52:59;1.03;;;0.80;;
17235;SDS011;8734;59.272;17.780;2024-01-10T02:55:28;1.63;;;1.03;;
17235;SDS011;8734;59.272;17.780;2024-01-10T02:57:56;2.07;;;0.90;;
17235;SDS011;8734;59.272;17.780;2024-01-10T03:00:25;0.90;;;0.70;;
17235;SDS011;8734;59.272;17.780;2024-01-10T03:02:54;1.57;;;1.13;;
17235;SDS011;8734;59.272;17.780;2024-01-10T03:05:22;1.97;;;1.00;;
17235;SDS011;8734;59.272;17.780;2024-01-10T03:07:50;1.20;;;0.90;;
17235;SDS011;8734;59.272;17.780;2024-01-10T03:10:18;1.10;;;0.90;;
17235;SDS011;8734;59.272;17.780;2024-01-10T03:12:46;1.77;;;0.90;;
17235;SDS011;8734;59.272;17.780;2024-01-10T03:15:14;0.63;;;0.63;;
17235;SDS011;8734;59.272;17.780;2024-01-10T03:17:44;1.70;;;1.00;;
17235;SDS011;8734;59.272;17.780;2024-01-10T03:20:12;1.83;;;0.77;;
17235;SDS011;8734;59.272;17.780;2024-01-10T03:22:40;1.47;;;0.83;;
17235;SDS011;8734;59.272;17.780;2024-01-10T03:25:08;0.90;;;0.90;;
17235;SDS011;8734;59.272;17.780;2024-01-10T03:27:36;1.17;;;0.80;;
17235;SDS011;8734;59.272;17.780;2024-01-10T03:30:05;1.13;;;0.90;;
17235;SDS011;8734;59.272;17.780;2024-01-10T03:32:35;0.70;;;0.70;;
17235;SDS011;8734;59.272;17.780;2024-01-10T03:35:05;1.67;;;0.90;;
17235;SDS011;8734;59.272;17.780;2024-01-10T03:37:35;0.43;;;0.43;;
17235;SDS011;8734;59.272;17.780;2024-01-10T03:40:03;1.47;;;1.00;;
17235;SDS011;8734;59.272;17.780;2024-01-10T03:42:32;1.23;;;0.80;;
17235;SDS011;8734;59.272;17.780;2024-01-10T03:45:00;1.63;;;0.90;;
17235;SDS011;8734;59.272;17.780;2024-01-10T03:47:30;1.40;;;0.87;;
17235;SDS011;8734;59.272;17.780;2024-01-10T03:49:58;2.13;;;0.80;;
17235;SDS011;8734;59.272;17.780;2024-01-10T03:52:28;0.80;;;0.80;;
17235;SDS011;8734;59.272;17.780;2024-01-10T03:54:56;0.70;;;0.70;;
17235;SDS011;8734;59.272;17.780;2024-01-10T03:57:25;2.27;;;0.80;;
17235;SDS011;8734;59.272;17.780;2024-01-10T03:59:53;0.70;;;0.70;;
17235;SDS011;8734;59.272;17.780;2024-01-10T04:02:21;1.07;;;0.80;;
17235;SDS011;8734;59.272;17.780;2024-01-10T04:04:49;1.77;;;0.90;;
17235;SDS011;8734;59.272;17.780;2024-01-10T04:07:18;1.67;;;0.80;;
17235;SDS011;8734;59.272;17.780;2024-01-10T04:09:47;0.50;;;0.50;;
17235;SDS011;8734;59.272;17.780;2024-01-10T04:12:16;0.80;;;0.80;;
17235;SDS011;8734;59.272;17.780;2024-01-10T04:14:44;1.63;;;0.57;;
17235;SDS011;8734;59.272;17.780;2024-01-10T04:17:12;1.30;;;0.90;;
17235;SDS011;8734;59.272;17.780;2024-01-10T04:19:40;0.60;;;0.60;;
17235;SDS011;8734;59.272;17.780;2024-01-10T04:22:08;0.97;;;0.73;;
17235;SDS011;8734;59.272;17.780;2024-01-10T04:24:37;1.23;;;0.80;;
17235;SDS011;8734;59.272;17.780;2024-01-10T04:27:06;1.43;;;0.73;;
17235;SDS011;8734;59.272;17.780;2024-01-10T04:29:36;0.77;;;0.77;;
17235;SDS011;8734;59.272;17.780;2024-01-10T04:32:05;1.77;;;0.90;;
17235;SDS011;8734;59.272;17.780;2024-01-10T04:34:34;1.17;;;0.70;;
17235;SDS011;8734;59.272;17.780;2024-01-10T04:37:02;0.60;;;0.60;;
17235;SDS011;8734;59.272;17.780;2024-01-10T04:39:33;3.93;;;0.90;;
17235;SDS011;8734;59.272;17.780;2024-01-10T04:42:02;0.87;;;0.70;;
17235;SDS011;8734;59.272;17.780;2024-01-10T04:44:31;1.00;;;0.90;;
17235;SDS011;8734;59.272;17.780;2024-01-10T04:46:59;1.97;;;0.83;;
17235;SDS011;8734;59.272;17.780;2024-01-10T04:49:28;0.83;;;0.73;;
17235;SDS011;8734;59.272;17.780;2024-01-10T04:51:56;2.93;;;0.70;;
17235;SDS011;8734;59.272;17.780;2024-01-10T04:54:24;2.00;;;0.80;;
17235;SDS011;8734;59.272;17.780;2024-01-10T04:56:53;0.60;;;0.60;;
17235;SDS011;8734;59.272;17.780;2024-01-10T04:59:21;0.73;;;0.60;;
17235;SDS011;8734;59.272;17.780;2024-01-10T05:01:51;0.60;;;0.60;;
17235;SDS011;8734;59.272;17.780;2024-01-10T05:04:19;1.07;;;0.70;;
17235;SDS011;8734;59.272;17.780;2024-01-10T05:06:47;1.07;;;0.73;;
17235;SDS011;8734;59.272;17.780;2024-01-10T05:09:16;1.20;;;0.63;;
17235;SDS011;8734;59.272;17.780;2024-01-10T05:11:44;1.33;;;0.50;;
17235;SDS011;8734;59.272;17.780;2024-01-10T05:14:17;1.23;;;0.60;;
17235;SDS011;8734;59.272;17.780;2024-01-10T05:16:46;0.60;;;0.60;;
17235;SDS011;8734;59.272;17.780;2024-01-10T05:19:16;2.37;;;0.77;;
17235;SDS011;8734;59.272;17.780;2024-01-10T05:21:44;0.87;;;0.70;;
17235;SDS011;8734;59.272;17.780;2024-01-10T05:24:13;1.03;;;0.70;;
17235;SDS011;8734;59.272;17.780;2024-01-10T05:26:41;0.93;;;0.77;;
17235;SDS011;8734;59.272;17.780;2024-01-10T05:29:10;0.83;;;0.50;;
17235;SDS011;8734;59.272;17.780;2024-01-10T05:31:38;0.83;;;0.70;;
17235;SDS011;8734;59.272;17.780;2024-01-10T05:34:06;0.70;;;0.70;;
17235;SDS011;8734;59.272;17.780;2024-01-10T05:36:36;1.20;;;0.70;;
17235;SDS011;8734;59.272;17.780;2024-01-10T05:39:05;1.97;;;0.60;;
17235;SDS011;8734;59.272;17.780;2024-01-10T05:41:33;0.60;;;0.60;;
17235;SDS011;8734;59.272;17.780;2024-01-10T05:44:04;1.17;;;0.50;;
17235;SDS011;8734;59.272;17.780;2024-01-10T05:46:33;3.23;;;0.70;;
17235;SDS011;8734;59.272;17.780;2024-01-10T05:49:01;3.13;;;0.73;;
17235;SDS011;8734;59.272;17.780;2024-01-10T05:51:31;0.70;;;0.63;;
17235;SDS011;8734;59.272;17.780;2024-01-10T05:54:01;0.87;;;0.73;;
17235;SDS011;8734;59.272;17.780;2024-01-10T05:56:29;1.97;;;0.80;;
17235;SDS011;8734;59.272;17.780;2024-01-10T05:58:57;1.17;;;0.73;;
17235;SDS011;8734;59.272;17.780;2024-01-10T06:01:25;0.50;;;0.50;;
17235;SDS011;8734;59.272;17.780;2024-01-10T06:03:53;0.70;;;0.70;;
17235;SDS011;8734;59.272;17.780;2024-01-10T06:06:23;0.50;;;0.50;;
17235;SDS011;8734;59.272;17.780;2024-01-10T06:08:52;0.87;;;0.70;;
17235;SDS011;8734;59.272;17.780;2024-01-10T06:11:21;1.60;;;0.70;;
17235;SDS011;8734;59.272;17.780;2024-01-10T06:13:49;0.60;;;0.60;;
17235;SDS011;8734;59.272;17.780;2024-01-10T06:16:23;0.70;;;0.60;;
17235;SDS011;8734;59.272;17.780;2024-01-10T06:18:51;2.50;;;0.63;;
17235;SDS011;8734;59.272;17.780;2024-01-10T06:21:19;4.97;;;0.60;;
17235;SDS011;8734;59.272;17.780;2024-01-10T06:23:48;1.40;;;0.80;;
17235;SDS011;8734;59.272;17.780;2024-01-10T06:26:16;0.60;;;0.60;;
17235;SDS011;8734;59.272;17.780;2024-01-10T06:28:46;0.97;;;0.60;;
17235;SDS011;8734;59.272;17.780;2024-01-10T06:31:14;0.60;;;0.60;;
17235;SDS011;8734;59.272;17.780;2024-01-10T06:33:42;0.77;;;0.63;;
17235;SDS011;8734;59.272;17.780;2024-01-10T06:36:11;0.47;;;0.47;;
17235;SDS011;8734;59.272;17.780;2024-01-10T06:38:39;0.50;;;0.50;;
17235;SDS011;8734;59.272;17.780;2024-01-10T06:41:08;0.73;;;0.60;;
17235;SDS011;8734;59.272;17.780;2024-01-10T06:43:36;1.33;;;0.60;;
17235;SDS011;8734;59.272;17.780;2024-01-10T06:46:06;3.47;;;0.80;;
17235;SDS011;8734;59.272;17.780;2024-01-10T06:48:34;0.70;;;0.60;;
17235;SDS011;8734;59.272;17.780;2024-01-10T06:51:09;0.90;;;0.60;;
17235;SDS011;8734;59.272;17.780;2024-01-10T06:53:40;25.40;;;9.70;;
17235;SDS011;8734;59.272;17.780;2024-01-10T06:56:09;48.07;;;12.83;;
17235;SDS011;8734;59.272;17.780;2024-01-10T06:58:38;53.80;;;16.80;;
17235;SDS011;8734;59.272;17.780;2024-01-10T07:01:12;52.30;;;18.23;;
17235;SDS011;8734;59.272;17.780;2024-01-10T07:03:41;81.63;;;28.80;;
17235;SDS011;8734;59.272;17.780;2024-01-10T07:06:11;82.00;;;29.57;;
17235;SDS011;8734;59.272;17.780;2024-01-10T07:08:41;44.67;;;16.13;;
17235;SDS011;8734;59.272;17.780;2024-01-10T07:11:11;37.70;;;12.53;;
17235;SDS011;8734;59.272;17.780;2024-01-10T07:13:39;27.33;;;9.60;;
17235;SDS011;8734;59.272;17.780;2024-01-10T07:16:08;128.37;;;37.77;;
17235;SDS011;8734;59.272;17.780;2024-01-10T07:18:38;25.27;;;9.77;;
17235;SDS011;8734;59.272;17.780;2024-01-10T07:21:06;5.37;;;2.20;;
17235;SDS011;8734;59.272;17.780;2024-01-10T07:23:37;19.73;;;7.70;;
17235;SDS011;8734;59.272;17.780;2024-01-10T07:26:07;5.77;;;3.40;;
17235;SDS011;8734;59.272;17.780;2024-01-10T07:28:35;1.07;;;0.97;;
17235;SDS011;8734;59.272;17.780;2024-01-10T07:31:04;1.10;;;1.00;;
17235;SDS011;8734;59.272;17.780;2024-01-10T07:33:33;1.53;;;0.70;;
17235;SDS011;8734;59.272;17.780;2024-01-10T07:36:03;0.83;;;0.77;;
17235;SDS011;8734;59.272;17.780;2024-01-10T07:38:31;0.70;;;0.60;;
17235;SDS011;8734;59.272;17.780;2024-01-10T07:41:00;1.80;;;1.20;;
17235;SDS011;8734;59.272;17.780;2024-01-10T07:43:29;4.40;;;1.50;;
17235;SDS011;8734;59.272;17.780;2024-01-10T07:45:57;0.80;;;0.80;;
17235;SDS011;8734;59.272;17.780;2024-01-10T07:48:27;2.57;;;1.10;;
17235;SDS011;8734;59.272;17.780;2024-01-10T07:50:58;2.87;;;1.00;;
17235;SDS011;8734;59.272;17.780;2024-01-10T07:53:28;0.80;;;0.80;;
17235;SDS011;8734;59.272;17.780;2024-01-10T07:55:56;3.93;;;1.40;;
17235;SDS011;8734;59.272;17.780;2024-01-10T07:58:24;1.70;;;1.20;;
17235;SDS011;8734;59.272;17.780;2024-01-10T08:00:53;4.33;;;2.33;;
17235;SDS011;8734;59.272;17.780;2024-01-10T08:03:21;2.90;;;1.80;;
17235;SDS011;8734;59.272;17.780;2024-01-10T08:05:50;1.07;;;0.70;;
17235;SDS011;8734;59.272;17.780;2024-01-10T08:08:18;1.17;;;0.80;;
17235;SDS011;8734;59.272;17.780;2024-01-10T08:10:48;2.40;;;0.60;;
17235;SDS011;8734;59.272;17.780;2024-01-10T08:13:16;5.30;;;0.60;;
17235;SDS011;8734;59.272;17.780;2024-01-10T08:15:44;0.50;;;0.50;;
17235;SDS011;8734;59.272;17.780;2024-01-10T08:18:12;0.93;;;0.60;;
17235;SDS011;8734;59.272;17.780;2024-01-10T08:20:41;1.47;;;0.80;;
17235;SDS011;8734;59.272;17.780;2024-01-10T08:23:09;0.80;;;0.70;;
17235;SDS011;8734;59.272;17.780;2024-01-10T08:25:37;0.70;;;0.57;;
17235;SDS011;8734;59.272;17.780;2024-01-10T08:28:08;0.60;;;0.60;;
17235;SDS011;8734;59.272;17.780;2024-01-10T08:30:36;1.30;;;0.90;;
17235;SDS011;8734;59.272;17.780;2024-01-10T08:33:04;0.67;;;0.67;;
17235;SDS011;8734;59.272;17.780;2024-01-10T08:35:35;2.03;;;0.70;;
17235;SDS011;8734;59.272;17.780;2024-01-10T08:38:03;0.40;;;0.40;;
17235;SDS011;8734;59.272;17.780;2024-01-10T08:40:34;2.83;;;0.67;;
17235;SDS011;8734;59.272;17.780;2024-01-10T08:43:03;0.90;;;0.70;;
17235;SDS011;8734;59.272;17.780;2024-01-10T08:45:33;0.60;;;0.60;;
17235;SDS011;8734;59.272;17.780;2024-01-10T08:48:02;0.87;;;0.70;;
17235;SDS011;8734;59.272;17.780;2024-01-10T08:50:35;0.60;;;0.60;;
17235;SDS011;8734;59.272;17.780;2024-01-10T08:53:03;1.20;;;0.63;;
17235;SDS011;8734;59.272;17.780;2024-01-10T08:55:32;0.70;;;0.70;;
17235;SDS011;8734;59.272;17.780;2024-01-10T08:58:00;1.87;;;0.80;;
17235;SDS011;8734;59.272;17.780;2024-01-10T09:00:28;1.67;;;0.43;;
17235;SDS011;8734;59.272;17.780;2024-01-10T09:02:59;1.00;;;0.60;;
17235;SDS011;8734;59.272;17.780;2024-01-10T09:05:28;0.60;;;0.60;;
17235;SDS011;8734;59.272;17.780;2024-01-10T09:07:56;0.60;;;0.50;;
17235;SDS011;8734;59.272;17.780;2024-01-10T09:10:25;0.40;;;0.40;;
17235;SDS011;8734;59.272;17.780;2024-01-10T09:12:55;0.97;;;0.60;;
17235;SDS011;8734;59.272;17.780;2024-01-10T09:15:25;0.53;;;0.53;;
17235;SDS011;8734;59.272;17.780;2024-01-10T09:17:54;1.00;;;0.60;;
17235;SDS011;8734;59.272;17.780;2024-01-10T09:20:23;0.63;;;0.57;;
17235;SDS011;8734;59.272;17.780;2024-01-10T09:22:52;0.67;;;0.50;;
17235;SDS011;8734;59.272;17.780;2024-01-10T09:25:21;0.37;;;0.37;;
17235;SDS011;8734;59.272;17.780;2024-01-10T09:27:49;0.70;;;0.63;;
17235;SDS011;8734;59.272;17.780;2024-01-10T09:30:17;0.70;;;0.57;;
17235;SDS011;8734;59.272;17.780;2024-01-10T09:32:46;0.50;;;0.50;;
17235;SDS011;8734;59.272;17.780;2024-01-10T09:35:15;0.60;;;0.60;;
17235;SDS011;8734;59.272;17.780;2024-01-10T09:37:46;0.57;;;0.57;;
17235;SDS011;8734;59.272;17.780;2024-01-10T09:40:14;0.93;;;0.70;;
17235;SDS011;8734;59.272;17.780;2024-01-10T09:42:44;0.57;;;0.47;;
17235;SDS011;8734;59.272;17.780;2024-01-10T09:45:13;0.70;;;0.70;;
17235;SDS011;8734;59.272;17.780;2024-01-10T09:47:45;0.70;;;0.67;;
17235;SDS011;8734;59.272;17.780;2024-01-10T09:50:16;0.60;;;0.60;;
17235;SDS011;8734;59.272;17.780;2024-01-10T09:52:48;1.87;;;0.70;;
17235;SDS011;8734;59.272;17.780;2024-01-10T09:55:19;1.40;;;0.63;;
17235;SDS011;8734;59.272;17.780;2024-01-10T09:57:51;0.87;;;0.70;;
17235;SDS011;8734;59.272;17.780;2024-01-10T10:00:19;0.60;;;0.60;;
17235;SDS011;8734;59.272;17.780;2024-01-10T10:02:50;0.60;;;0.60;;
17235;SDS011;8734;59.272;17.780;2024-01-10T10:05:21;2.77;;;1.17;;
17235;SDS011;8734;59.272;17.780;2024-01-10T10:07:51;0.60;;;0.60;;
17235;SDS011;8734;59.272;17.780;2024-01-10T10:10:21;0.50;;;0.50;;
17235;SDS011;8734;59.272;17.780;2024-01-10T10:12:49;3.50;;;0.77;;
17235;SDS011;8734;59.272;17.780;2024-01-10T10:15:19;0.87;;;0.70;;
17235;SDS011;8734;59.272;17.780;2024-01-10T10:17:49;0.57;;;0.50;;
17235;SDS011;8734;59.272;17.780;2024-01-10T10:20:20;0.50;;;0.50;;
17235;SDS011;8734;59.272;17.780;2024-01-10T10:23:00;0.60;;;0.60;;
17235;SDS011;8734;59.272;17.780;2024-01-10T10:25:30;0.40;;;0.40;;
17235;SDS011;8734;59.272;17.780;2024-01-10T10:28:02;2.30;;;0.40;;
17235;SDS011;8734;59.272;17.780;2024-01-10T10:30:32;0.77;;;0.60;;
17235;SDS011;8734;59.272;17.780;2024-01-10T10:33:01;0.80;;;0.40;;
17235;SDS011;8734;59.272;17.780;2024-01-10T10:35:32;0.90;;;0.70;;
17235;SDS011;8734;59.272;17.780;2024-01-10T10:38:08;0.93;;;0.60;;
17235;SDS011;8734;59.272;17.780;2024-01-10T10:40:37;0.60;;;0.50;;
17235;SDS011;8734;59.272;17.780;2024-01-10T10:43:06;1.50;;;0.70;;
17235;SDS011;8734;59.272;17.780;2024-01-10T10:45:40;1.83;;;0.63;;
17235;SDS011;8734;59.272;17.780;2024-01-10T10:48:15;0.43;;;0.43;;
17235;SDS011;8734;59.272;17.780;2024-01-10T10:50:48;0.60;;;0.60;;
17235;SDS011;8734;59.272;17.780;2024-01-10T10:53:24;0.50;;;0.50;;
17235;SDS011;8734;59.272;17.780;2024-01-10T10:55:55;0.50;;;0.50;;
17235;SDS011;8734;59.272;17.780;2024-01-10T10:58:26;0.83;;;0.53;;
17235;SDS011;8734;59.272;17.780;2024-01-10T11:00:55;0.40;;;0.40;;
17235;SDS011;8734;59.272;17.780;2024-01-10T11:03:24;0.50;;;0.50;;
17235;SDS011;8734;59.272;17.780;2024-01-10T11:05:55;0.63;;;0.60;;
17235;SDS011;8734;59.272;17.780;2024-01-10T11:08:28;0.60;;;0.60;;
17235;SDS011;8734;59.272;17.780;2024-01-10T11:10:58;0.47;;;0.47;;
17235;SDS011;8734;59.272;17.780;2024-01-10T11:13:35;0.60;;;0.57;;
17235;SDS011;8734;59.272;17.780;2024-01-10T11:22:40;0.50;;;0.40;;
17235;SDS011;8734;59.272;17.780;2024-01-10T11:25:18;1.10;;;0.60;;
17235;SDS011;8734;59.272;17.780;2024-01-10T11:27:51;0.70;;;0.70;;
17235;SDS011;8734;59.272;17.780;2024-01-10T11:30:30;0.97;;;0.57;;
17235;SDS011;8734;59.272;17.780;2024-01-10T11:33:02;0.97;;;0.70;;
17235;SDS011;8734;59.272;17.780;2024-01-10T11:38:41;1.80;;;0.50;;
17235;SDS011;8734;59.272;17.780;2024-01-10T11:41:12;0.97;;;0.60;;
17235;SDS011;8734;59.272;17.780;2024-01-10T11:46:47;0.77;;;0.57;;
17235;SDS011;8734;59.272;17.780;2024-01-10T11:49:17;1.23;;;0.80;;
17235;SDS011;8734;59.272;17.780;2024-01-10T11:51:48;0.40;;;0.40;;
17235;SDS011;8734;59.272;17.780;2024-01-10T11:57:08;1.27;;;0.50;;
17235;SDS011;8734;59.272;17.780;2024-01-10T11:59:41;0.73;;;0.50;;
17235;SDS011;8734;59.272;17.780;2024-01-10T12:02:11;0.90;;;0.70;;
17235;SDS011;8734;59.272;17.780;2024-01-10T12:04:42;0.50;;;0.50;;
17235;SDS011;8734;59.272;17.780;2024-01-10T12:07:14;0.80;;;0.60;;
17235;SDS011;8734;59.272;17.780;2024-01-10T12:09:45;2.83;;;0.50;;
17235;SDS011;8734;59.272;17.780;2024-01-10T12:12:15;1.17;;;0.50;;
17235;SDS011;8734;59.272;17.780;2024-01-10T12:14:43;0.57;;;0.50;;
17235;SDS011;8734;59.272;17.780;2024-01-10T12:17:12;0.67;;;0.60;;
17235;SDS011;8734;59.272;17.780;2024-01-10T12:19:41;0.60;;;0.60;;
17235;SDS011;8734;59.272;17.780;2024-01-10T12:22:12;0.67;;;0.50;;
17235;SDS011;8734;59.272;17.780;2024-01-10T12:24:44;0.87;;;0.53;;
17235;SDS011;8734;59.272;17.780;2024-01-10T12:27:18;1.07;;;0.77;;
17235;SDS011;8734;59.272;17.780;2024-01-10T12:29:49;0.53;;;0.40;;
17235;SDS011;8734;59.272;17.780;2024-01-10T12:32:20;1.00;;;0.60;;
17235;SDS011;8734;59.272;17.780;2024-01-10T12:34:54;0.60;;;0.50;;
17235;SDS011;8734;59.272;17.780;2024-01-10T12:37:25;0.80;;;0.40;;
17235;SDS011;8734;59.272;17.780;2024-01-10T12:39:53;0.87;;;0.53;;
17235;SDS011;8734;59.272;17.780;2024-01-10T12:42:24;1.13;;;0.60;;
17235;SDS011;8734;59.272;17.780;2024-01-10T12:44:52;1.23;;;0.70;;
17235;SDS011;8734;59.272;17.780;2024-01-10T12:47:21;0.50;;;0.50;;
17235;SDS011;8734;59.272;17.780;2024-01-10T12:49:51;2.73;;;0.47;;
17235;SDS011;8734;59.272;17.780;2024-01-10T12:52:21;0.50;;;0.50;;
17235;SDS011;8734;59.272;17.780;2024-01-10T12:54:51;1.20;;;0.70;;
17235;SDS011;8734;59.272;17.780;2024-01-10T12:57:20;0.87;;;0.50;;
17235;SDS011;8734;59.272;17.780;2024-01-10T12:59:51;0.60;;;0.60;;
17235;SDS011;8734;59.272;17.780;2024-01-10T13:02:19;0.40;;;0.33;;
17235;SDS011;8734;59.272;17.780;2024-01-10T13:04:48;2.00;;;0.60;;
17235;SDS011;8734;59.272;17.780;2024-01-10T13:07:16;2.50;;;0.90;;
17235;SDS011;8734;59.272;17.780;2024-01-10T13:09:45;0.50;;;0.50;;
17235;SDS011;8734;59.272;17.780;2024-01-10T13:12:13;1.47;;;0.70;;
17235;SDS011;8734;59.272;17.780;2024-01-10T13:14:41;0.60;;;0.53;;
17235;SDS011;8734;59.272;17.780;2024-01-10T13:17:11;2.20;;;0.83;;
17235;SDS011;8734;59.272;17.780;2024-01-10T13:19:39;0.50;;;0.50;;
17235;SDS011;8734;59.272;17.780;2024-01-10T13:22:07;0.60;;;0.50;;
17235;SDS011;8734;59.272;17.780;2024-01-10T13:24:36;4.63;;;0.60;;
17235;SDS011;8734;59.272;17.780;2024-01-10T13:27:04;0.63;;;0.60;;
17235;SDS011;8734;59.272;17.780;2024-01-10T13:29:32;0.60;;;0.50;;
17235;SDS011;8734;59.272;17.780;2024-01-10T13:32:01;0.53;;;0.53;;
17235;SDS011;8734;59.272;17.780;2024-01-10T13:34:31;0.47;;;0.47;;
17235;SDS011;8734;59.272;17.780;2024-01-10T13:37:00;0.40;;;0.40;;
17235;SDS011;8734;59.272;17.780;2024-01-10T13:39:28;1.77;;;0.53;;
17235;SDS011;8734;59.272;17.780;2024-01-10T13:41:57;0.60;;;0.60;;
17235;SDS011;8734;59.272;17.780;2024-01-10T13:44:25;3.30;;;0.70;;
17235;SDS011;8734;59.272;17.780;2024-01-10T13:46:53;0.50;;;0.50;;
17235;SDS011;8734;59.272;17.780;2024-01-10T13:49:23;0.57;;;0.50;;
17235;SDS011;8734;59.272;17.780;2024-01-10T13:51:52;1.40;;;0.60;;
17235;SDS011;8734;59.272;17.780;2024-01-10T13:54:21;1.40;;;0.80;;
17235;SDS011;8734;59.272;17.780;2024-01-10T13:56:49;0.73;;;0.67;;
17235;SDS011;8734;59.272;17.780;2024-01-10T13:59:17;0.40;;;0.40;;
17235;SDS011;8734;59.272;17.780;2024-01-10T14:01:46;4.53;;;0.50;;
17235;SDS011;8734;59.272;17.780;2024-01-10T14:04:14;0.50;;;0.50;;
17235;SDS011;8734;59.272;17.780;2024-01-10T14:06:42;4.20;;;0.60;;
17235;SDS011;8734;59.272;17.780;2024-01-10T14:09:12;1.43;;;0.80;;
17235;SDS011;8734;59.272;17.780;2024-01-10T14:11:40;1.23;;;0.50;;
17235;SDS011;8734;59.272;17.780;2024-01-10T14:14:10;0.53;;;0.53;;
17235;SDS011;8734;59.272;17.780;2024-01-10T14:16:38;1.37;;;0.60;;
17235;SDS011;8734;59.272;17.780;2024-01-10T14:19:07;0.60;;;0.60;;
17235;SDS011;8734;59.272;17.780;2024-01-10T14:21:35;0.60;;;0.60;;
17235;SDS011;8734;59.272;17.780;2024-01-10T14:24:04;1.40;;;0.70;;
17235;SDS011;8734;59.272;17.780;2024-01-10T14:26:34;0.57;;;0.57;;
17235;SDS011;8734;59.272;17.780;2024-01-10T14:29:03;1.87;;;0.70;;
17235;SDS011;8734;59.272;17.780;2024-01-10T14:31:31;1.67;;;0.57;;
17235;SDS011;8734;59.272;17.780;2024-01-10T14:34:20;0.70;;;0.60;;
17235;SDS011;8734;59.272;17.780;2024-01-10T14:36:48;0.50;;;0.50;;
17235;SDS011;8734;59.272;17.780;2024-01-10T14:39:16;1.63;;;0.60;;
17235;SDS011;8734;59.272;17.780;2024-01-10T14:41:47;1.03;;;0.70;;
17235;SDS011;8734;59.272;17.780;2024-01-10T14:44:16;0.83;;;0.70;;
17235;SDS011;8734;59.272;17.780;2024-01-10T14:46:44;2.73;;;0.77;;
17235;SDS011;8734;59.272;17.780;2024-01-10T14:49:25;3.53;;;0.70;;
17235;SDS011;8734;59.272;17.780;2024-01-10T14:51:54;1.10;;;0.80;;
17235;SDS011;8734;59.272;17.780;2024-01-10T14:54:22;0.57;;;0.50;;
17235;SDS011;8734;59.272;17.780;2024-01-10T14:56:51;1.63;;;0.63;;
17235;SDS011;8734;59.272;17.780;2024-01-10T14:59:20;0.70;;;0.70;;
17235;SDS011;8734;59.272;17.780;2024-01-10T15:02:06;4.57;;;1.00;;
17235;SDS011;8734;59.272;17.780;2024-01-10T15:04:36;2.90;;;1.10;;
17235;SDS011;8734;59.272;17.780;2024-01-10T15:07:05;2.40;;;0.80;;
17235;SDS011;8734;59.272;17.780;2024-01-10T15:09:34;0.80;;;0.70;;
17235;SDS011;8734;59.272;17.780;2024-01-10T15:12:06;1.27;;;0.80;;
17235;SDS011;8734;59.272;17.780;2024-01-10T15:14:36;1.60;;;0.70;;
17235;SDS011;8734;59.272;17.780;2024-01-10T15:17:06;0.97;;;0.83;;